createdAt,value
2019-02-15T00:00:03.178Z,0.00
2019-02-15T00:01:03.164Z,0.00
2019-02-15T00:02:03.155Z,0.00
2019-02-15T00:03:03.137Z,0.00
2019-02-15T00:04:03.129Z,0.00
2019-02-15T00:05:03.110Z,0.00
2019-02-15T00:06:03.096Z,0.00
2019-02-15T00:07:03.083Z,0.00
2019-02-15T00:08:03.070Z,0.00
2019-02-15T00:09:03.056Z,0.00
2019-02-15T00:10:03.043Z,0.00
2019-02-15T00:11:03.030Z,0.00
2019-02-15T00:12:03.021Z,0.00
2019-02-15T00:13:03.003Z,0.00
2019-02-15T00:14:02.987Z,0.00
2019-02-15T00:15:02.977Z,0.00
2019-02-15T00:16:02.973Z,0.00
2019-02-15T00:17:02.946Z,0.00
2019-02-15T00:18:02.931Z,0.00
2019-02-15T00:19:02.921Z,0.00
2019-02-15T00:20:02.904Z,0.00
2019-02-15T00:21:02.893Z,0.00
2019-02-15T00:22:02.876Z,0.00
2019-02-15T00:23:02.862Z,0.00
2019-02-15T00:24:02.850Z,0.00
2019-02-15T00:25:02.836Z,0.00
2019-02-15T00:26:02.822Z,0.00
2019-02-15T00:27:02.808Z,0.00
2019-02-15T00:28:02.794Z,0.00
2019-02-15T00:29:02.781Z,0.00
2019-02-15T00:30:02.767Z,0.00
2019-02-15T00:31:02.755Z,0.00
2019-02-15T00:32:02.741Z,0.00
2019-02-15T00:33:02.727Z,0.00
2019-02-15T00:34:02.712Z,0.00
2019-02-15T00:35:02.699Z,0.00
2019-02-15T00:36:02.689Z,0.00
2019-02-15T00:37:02.672Z,0.00
2019-02-15T00:38:02.658Z,0.00
2019-02-15T00:39:02.645Z,0.00
2019-02-15T00:40:02.631Z,0.00
2019-02-15T00:41:02.618Z,0.00
2019-02-15T00:42:02.605Z,0.00
2019-02-15T00:43:02.590Z,0.00
2019-02-15T00:44:02.580Z,0.00
2019-02-15T00:45:02.563Z,0.00
2019-02-15T00:46:02.551Z,0.00
2019-02-15T00:47:02.537Z,0.00
2019-02-15T00:48:02.521Z,0.00
2019-02-15T00:49:02.511Z,0.00
2019-02-15T00:50:02.494Z,0.00
2019-02-15T00:51:02.484Z,0.00
2019-02-15T00:52:02.470Z,0.00
2019-02-15T00:53:02.454Z,0.00
2019-02-15T00:54:02.439Z,0.00
2019-02-15T00:55:02.426Z,0.00
2019-02-15T00:56:02.413Z,0.00
2019-02-15T00:57:02.404Z,0.00
2019-02-15T00:58:02.384Z,0.00
2019-02-15T00:59:02.372Z,0.00
2019-02-15T01:00:02.358Z,0.00
2019-02-15T01:01:02.351Z,0.00
2019-02-15T01:02:02.331Z,0.00
2019-02-15T01:03:02.316Z,0.00
2019-02-15T01:04:02.304Z,0.00
2019-02-15T01:05:02.290Z,0.00
2019-02-15T01:06:02.275Z,0.00
2019-02-15T01:07:02.261Z,0.00
2019-02-15T01:08:02.247Z,0.00
2019-02-15T01:09:02.235Z,0.00
2019-02-15T01:10:02.220Z,0.00
2019-02-15T01:11:02.206Z,0.00
2019-02-15T01:12:02.193Z,0.00
2019-02-15T01:13:02.179Z,0.00
2019-02-15T01:14:02.164Z,0.00
2019-02-15T01:15:02.151Z,0.00
2019-02-15T01:16:02.137Z,0.00
2019-02-15T01:17:02.125Z,0.00
2019-02-15T01:18:02.109Z,0.00
2019-02-15T01:19:02.094Z,0.00
2019-02-15T01:20:02.080Z,0.00
2019-02-15T01:21:02.066Z,0.00
2019-02-15T01:22:02.052Z,0.00
2019-02-15T01:23:02.038Z,0.00
2019-02-15T01:24:02.023Z,0.00
2019-02-15T01:25:02.013Z,0.00
2019-02-15T01:26:01.995Z,0.00
2019-02-15T01:27:01.981Z,0.00
2019-02-15T01:28:01.967Z,0.00
2019-02-15T01:29:01.953Z,0.00
2019-02-15T01:30:01.941Z,0.00
2019-02-15T01:31:02.925Z,0.00
2019-02-15T01:32:01.911Z,0.00
2019-02-15T01:33:01.897Z,0.00
2019-02-15T01:34:01.882Z,0.00
2019-02-15T01:35:01.871Z,0.00
2019-02-15T01:36:01.854Z,0.00
2019-02-15T01:37:01.841Z,0.00
2019-02-15T01:38:01.825Z,0.00
2019-02-15T01:39:01.820Z,0.00
2019-02-15T01:40:01.798Z,0.00
2019-02-15T01:41:01.789Z,0.00
2019-02-15T01:42:01.768Z,0.00
2019-02-15T01:43:01.754Z,0.00
2019-02-15T01:44:01.743Z,0.00
2019-02-15T01:45:01.726Z,0.00
2019-02-15T01:46:01.711Z,0.00
2019-02-15T01:47:01.747Z,0.00
2019-02-15T01:48:01.688Z,0.00
2019-02-15T01:49:01.676Z,0.00
2019-02-15T01:50:01.654Z,0.00
2019-02-15T01:51:01.640Z,0.00
2019-02-15T01:52:01.626Z,0.00
2019-02-15T01:53:01.612Z,0.00
2019-02-15T01:54:01.597Z,0.00
2019-02-15T01:55:01.586Z,0.00
2019-02-15T01:56:01.569Z,0.00
2019-02-15T01:57:01.555Z,0.00
2019-02-15T01:58:01.542Z,0.00
2019-02-15T01:59:01.526Z,0.00
2019-02-15T02:00:02.713Z,0.00
2019-02-15T02:01:01.498Z,0.00
2019-02-15T02:02:01.491Z,0.00
2019-02-15T02:03:01.469Z,0.00
2019-02-15T02:04:01.457Z,0.00
2019-02-15T02:05:01.441Z,0.00
2019-02-15T02:06:01.425Z,0.00
2019-02-15T02:07:01.421Z,0.00
2019-02-15T02:08:01.397Z,0.00
2019-02-15T02:09:01.383Z,0.00
2019-02-15T02:10:01.370Z,0.00
2019-02-15T02:11:01.353Z,0.00
2019-02-15T02:12:01.341Z,0.00
2019-02-15T02:13:01.325Z,0.00
2019-02-15T02:14:01.310Z,0.00
2019-02-15T02:15:01.295Z,0.00
2019-02-15T02:16:01.282Z,0.00
2019-02-15T02:17:01.318Z,0.00
2019-02-15T02:18:01.252Z,0.00
2019-02-15T02:19:01.238Z,0.00
2019-02-15T02:20:01.230Z,0.00
2019-02-15T02:21:01.214Z,0.00
2019-02-15T02:22:01.195Z,0.00
2019-02-15T02:23:01.868Z,0.00
2019-02-15T02:24:01.868Z,0.00
2019-02-15T02:25:01.152Z,0.00
2019-02-15T02:26:01.139Z,0.00
2019-02-15T02:27:01.128Z,0.00
2019-02-15T02:28:01.111Z,0.00
2019-02-15T02:29:01.098Z,0.00
2019-02-15T02:30:01.093Z,0.00
2019-02-15T02:31:01.080Z,0.00
2019-02-15T02:32:01.061Z,0.00
2019-02-15T02:33:01.039Z,0.00
2019-02-15T02:34:01.035Z,0.00
2019-02-15T02:35:01.010Z,0.00
2019-02-15T02:36:01.070Z,0.00
2019-02-15T02:37:00.980Z,0.00
2019-02-15T02:38:00.973Z,0.00
2019-02-15T02:39:00.952Z,0.00
2019-02-15T02:40:01.943Z,0.00
2019-02-15T02:41:00.923Z,0.00
2019-02-15T02:42:00.907Z,0.00
2019-02-15T02:43:00.906Z,0.00
2019-02-15T02:44:00.889Z,0.00
2019-02-15T02:45:00.868Z,0.00
2019-02-15T02:46:00.869Z,0.00
2019-02-15T02:47:00.838Z,0.00
2019-02-15T02:48:00.822Z,0.00
2019-02-15T02:49:00.809Z,0.00
2019-02-15T02:50:00.818Z,0.00
2019-02-15T02:51:00.807Z,0.00
2019-02-15T02:52:00.767Z,0.00
2019-02-15T02:53:00.763Z,0.00
2019-02-15T02:54:00.735Z,0.00
2019-02-15T02:55:00.722Z,0.00
2019-02-15T02:56:00.706Z,0.00
2019-02-15T02:57:00.705Z,0.00
2019-02-15T02:58:02.628Z,0.00
2019-02-15T02:59:00.665Z,0.00
2019-02-15T03:00:00.647Z,0.00
2019-02-15T03:01:00.634Z,0.00
2019-02-15T03:02:00.654Z,0.00
2019-02-15T03:03:00.611Z,0.00
2019-02-15T03:04:00.590Z,0.00
2019-02-15T03:05:00.593Z,0.00
2019-02-15T03:06:00.571Z,0.00
2019-02-15T03:07:00.549Z,0.00
2019-02-15T03:08:00.537Z,0.00
2019-02-15T03:09:00.566Z,0.00
2019-02-15T03:10:00.512Z,0.00
2019-02-15T03:11:00.485Z,0.00
2019-02-15T03:12:00.491Z,0.00
2019-02-15T03:13:00.457Z,0.00
2019-02-15T03:14:10.678Z,0.00
2019-02-15T03:15:00.604Z,0.00
2019-02-15T03:16:00.416Z,0.00
2019-02-15T03:17:00.398Z,0.00
2019-02-15T03:18:00.387Z,0.00
2019-02-15T03:19:00.418Z,0.00
2019-02-15T03:20:00.667Z,0.00
2019-02-15T03:21:00.341Z,0.00
2019-02-15T03:22:00.323Z,0.00
2019-02-15T03:23:00.312Z,0.00
2019-02-15T03:24:00.303Z,0.00
2019-02-15T03:25:00.349Z,0.00
2019-02-15T03:26:00.265Z,0.00
2019-02-15T03:27:00.252Z,0.00
2019-02-15T03:28:02.088Z,0.00
2019-02-15T03:29:00.235Z,0.00
2019-02-15T03:30:00.649Z,0.00
2019-02-15T03:31:00.243Z,0.00
2019-02-15T03:32:00.187Z,0.00
2019-02-15T03:33:00.179Z,0.00
2019-02-15T03:34:00.199Z,0.00
2019-02-15T03:35:00.233Z,0.00
2019-02-15T03:36:00.119Z,0.00
2019-02-15T03:37:00.105Z,0.00
2019-02-15T03:38:00.089Z,0.00
2019-02-15T03:39:00.080Z,0.00
2019-02-15T03:40:00.062Z,0.00
2019-02-15T03:41:00.242Z,0.00
2019-02-15T03:42:00.033Z,0.00
2019-02-15T03:43:00.015Z,0.00
2019-02-15T03:44:00.000Z,0.00
2019-02-15T03:44:59.983Z,0.00
2019-02-15T03:45:59.971Z,0.00
2019-02-15T03:46:59.953Z,0.00
2019-02-15T03:47:59.939Z,0.00
2019-02-15T03:48:59.925Z,0.00
2019-02-15T03:49:59.907Z,0.00
2019-02-15T03:50:59.893Z,0.00
2019-02-15T03:51:59.883Z,0.00
2019-02-15T03:52:59.863Z,0.00
2019-02-15T03:53:59.850Z,0.00
2019-02-15T03:54:59.834Z,0.00
2019-02-15T03:55:59.819Z,0.00
2019-02-15T03:56:59.803Z,0.00
2019-02-15T03:57:59.788Z,0.00
2019-02-15T03:58:59.772Z,0.00
2019-02-15T03:59:59.756Z,0.00
2019-02-15T04:00:59.747Z,0.00
2019-02-15T04:01:59.731Z,0.00
2019-02-15T04:02:59.717Z,0.00
2019-02-15T04:03:59.696Z,0.00
2019-02-15T04:04:59.685Z,0.00
2019-02-15T04:05:59.667Z,0.00
2019-02-15T04:06:59.650Z,0.00
2019-02-15T04:07:59.642Z,0.00
2019-02-15T04:08:59.623Z,0.00
2019-02-15T04:09:59.604Z,0.00
2019-02-15T04:10:59.591Z,0.00
2019-02-15T04:11:59.574Z,0.00
2019-02-15T04:12:59.560Z,0.00
2019-02-15T04:13:59.544Z,0.00
2019-02-15T04:14:59.529Z,0.00
2019-02-15T04:15:59.514Z,0.00
2019-02-15T04:16:59.499Z,0.00
2019-02-15T04:17:59.487Z,0.00
2019-02-15T04:18:59.470Z,0.00
2019-02-15T04:19:59.453Z,0.00
2019-02-15T04:20:59.500Z,0.00
2019-02-15T04:21:59.426Z,0.00
2019-02-15T04:22:59.414Z,0.00
2019-02-15T04:23:59.395Z,0.00
2019-02-15T04:24:59.378Z,0.00
2019-02-15T04:25:59.361Z,0.00
2019-02-15T04:26:59.349Z,0.00
2019-02-15T04:27:59.339Z,0.00
2019-02-15T04:28:59.317Z,0.00
2019-02-15T04:29:59.301Z,0.00
2019-02-15T04:30:59.288Z,0.00
2019-02-15T04:31:59.271Z,0.00
2019-02-15T04:32:59.259Z,0.00
2019-02-15T04:33:59.241Z,0.00
2019-02-15T04:34:59.226Z,0.00
2019-02-15T04:35:59.212Z,0.00
2019-02-15T04:36:59.198Z,0.00
2019-02-15T04:37:59.181Z,0.00
2019-02-15T04:38:59.166Z,0.00
2019-02-15T04:39:59.155Z,0.00
2019-02-15T04:40:59.141Z,0.00
2019-02-15T04:41:59.120Z,0.00
2019-02-15T04:42:59.106Z,0.00
2019-02-15T04:43:59.096Z,0.00
2019-02-15T04:44:59.075Z,0.00
2019-02-15T04:45:59.059Z,0.00
2019-02-15T04:46:59.044Z,0.00
2019-02-15T04:47:59.029Z,0.00
2019-02-15T04:48:59.014Z,0.00
2019-02-15T04:49:59.010Z,0.00
2019-02-15T04:50:58.983Z,0.00
2019-02-15T04:51:58.969Z,0.00
2019-02-15T04:52:58.952Z,0.00
2019-02-15T04:53:58.938Z,0.00
2019-02-15T04:54:58.929Z,0.00
2019-02-15T04:55:58.906Z,0.00
2019-02-15T04:56:58.891Z,0.00
2019-02-15T04:57:58.942Z,0.00
2019-02-15T04:58:58.859Z,0.00
2019-02-15T04:59:58.843Z,0.00
2019-02-15T05:00:58.829Z,0.00
2019-02-15T05:01:58.812Z,0.00
2019-02-15T05:02:58.797Z,0.00
2019-02-15T05:03:58.782Z,0.00
2019-02-15T05:04:58.767Z,0.00
2019-02-15T05:05:58.749Z,0.00
2019-02-15T05:06:58.734Z,0.00
2019-02-15T05:07:58.718Z,0.00
2019-02-15T05:08:58.703Z,0.00
2019-02-15T05:09:58.688Z,0.00
2019-02-15T05:10:58.672Z,0.00
2019-02-15T05:11:58.657Z,0.00
2019-02-15T05:12:58.644Z,0.00
2019-02-15T05:13:58.650Z,0.00
2019-02-15T05:14:58.609Z,0.00
2019-02-15T05:15:58.592Z,0.00
2019-02-15T05:16:58.576Z,0.00
2019-02-15T05:17:58.561Z,0.00
2019-02-15T05:18:58.545Z,0.00
2019-02-15T05:19:58.695Z,0.00
2019-02-15T05:20:58.514Z,0.00
2019-02-15T05:21:58.498Z,0.00
2019-02-15T05:22:58.484Z,0.00
2019-02-15T05:23:58.468Z,0.00
2019-02-15T05:24:58.452Z,0.00
2019-02-15T05:25:58.436Z,0.00
2019-02-15T05:26:58.420Z,0.00
2019-02-15T05:27:58.405Z,0.00
2019-02-15T05:28:58.389Z,0.00
2019-02-15T05:29:58.379Z,0.00
2019-02-15T05:30:58.358Z,0.00
2019-02-15T05:31:58.344Z,0.00
2019-02-15T05:32:58.337Z,0.00
2019-02-15T05:33:58.311Z,0.00
2019-02-15T05:34:58.297Z,0.00
2019-02-15T05:35:58.281Z,0.00
2019-02-15T05:36:58.266Z,0.00
2019-02-15T05:37:58.250Z,0.00
2019-02-15T05:38:58.234Z,0.00
2019-02-15T05:39:58.219Z,0.00
2019-02-15T05:40:58.204Z,0.00
2019-02-15T05:41:58.187Z,0.00
2019-02-15T05:42:58.175Z,0.00
2019-02-15T05:43:58.160Z,0.00
2019-02-15T05:45:03.675Z,0.00
2019-02-15T05:45:58.176Z,0.00
2019-02-15T05:46:58.112Z,0.00
2019-02-15T05:47:58.097Z,0.00
2019-02-15T05:48:58.080Z,0.00
2019-02-15T05:49:58.065Z,0.00
2019-02-15T05:50:58.049Z,0.00
2019-02-15T05:51:58.034Z,0.00
2019-02-15T05:52:58.049Z,0.00
2019-02-15T05:53:58.003Z,0.00
2019-02-15T05:54:57.990Z,0.00
2019-02-15T05:55:57.974Z,0.00
2019-02-15T05:56:57.958Z,0.00
2019-02-15T05:57:57.942Z,0.00
2019-02-15T05:58:57.928Z,0.00
2019-02-15T05:59:57.912Z,0.00
2019-02-15T06:00:57.897Z,0.00
2019-02-15T06:01:57.889Z,0.00
2019-02-15T06:02:57.865Z,0.00
2019-02-15T06:03:57.855Z,0.00
2019-02-15T06:04:57.835Z,0.00
2019-02-15T06:05:57.822Z,0.00
2019-02-15T06:06:57.826Z,0.00
2019-02-15T06:07:57.789Z,0.00
2019-02-15T06:08:57.774Z,0.00
2019-02-15T06:09:57.760Z,0.00
2019-02-15T06:11:06.545Z,0.00
2019-02-15T06:11:57.729Z,0.00
2019-02-15T06:12:57.713Z,0.00
2019-02-15T06:13:57.698Z,0.00
2019-02-15T06:14:57.682Z,0.00
2019-02-15T06:15:57.666Z,0.00
2019-02-15T06:16:57.653Z,0.00
2019-02-15T06:17:57.639Z,4.00
2019-02-15T06:18:57.633Z,4.00
2019-02-15T06:19:57.607Z,0.00
2019-02-15T06:20:57.592Z,4.00
2019-02-15T06:21:57.577Z,4.00
2019-02-15T06:22:57.560Z,4.00
2019-02-15T06:23:57.547Z,8.00
2019-02-15T06:24:57.530Z,8.00
2019-02-15T06:25:57.513Z,8.00
2019-02-15T06:26:57.498Z,8.00
2019-02-15T06:27:57.482Z,12.00
2019-02-15T06:28:57.470Z,16.00
2019-02-15T06:29:57.451Z,16.00
2019-02-15T06:30:57.435Z,20.00
2019-02-15T06:31:57.419Z,20.00
2019-02-15T06:32:57.407Z,28.00
2019-02-15T06:33:57.388Z,32.00
2019-02-15T06:34:57.374Z,36.00
2019-02-15T06:35:57.358Z,44.00
2019-02-15T06:36:57.346Z,48.00
2019-02-15T06:37:57.331Z,52.00
2019-02-15T06:38:57.312Z,60.00
2019-02-15T06:39:57.297Z,72.00
2019-02-15T06:40:57.281Z,80.00
2019-02-15T06:41:57.266Z,92.00
2019-02-15T06:42:57.249Z,104.00
2019-02-15T06:43:57.237Z,116.00
2019-02-15T06:44:57.220Z,132.00
2019-02-15T06:45:57.209Z,144.00
2019-02-15T06:46:57.187Z,160.00
2019-02-15T06:47:57.173Z,176.00
2019-02-15T06:48:57.157Z,192.00
2019-02-15T06:49:57.143Z,208.00
2019-02-15T06:50:57.125Z,232.00
2019-02-15T06:51:57.114Z,248.00
2019-02-15T06:52:57.095Z,268.00
2019-02-15T06:53:57.077Z,292.00
2019-02-15T06:54:57.065Z,308.00
2019-02-15T06:55:57.046Z,332.00
2019-02-15T06:56:57.031Z,356.00
2019-02-15T06:57:57.014Z,376.00
2019-02-15T06:58:56.999Z,400.00
2019-02-15T06:59:56.983Z,424.00
2019-02-15T07:00:56.968Z,444.00
2019-02-15T07:01:56.952Z,464.00
2019-02-15T07:02:56.936Z,488.00
2019-02-15T07:03:56.920Z,512.00
2019-02-15T07:04:56.904Z,540.00
2019-02-15T07:05:56.890Z,560.00
2019-02-15T07:06:56.876Z,584.00
2019-02-15T07:07:56.857Z,612.00
2019-02-15T07:08:56.842Z,632.00
2019-02-15T07:09:56.826Z,656.00
2019-02-15T07:10:56.809Z,684.00
2019-02-15T07:11:56.794Z,712.00
2019-02-15T07:12:56.778Z,736.00
2019-02-15T07:13:56.762Z,760.00
2019-02-15T07:14:56.746Z,788.00
2019-02-15T07:15:56.733Z,812.00
2019-02-15T07:16:56.714Z,836.00
2019-02-15T07:17:56.698Z,864.00
2019-02-15T07:18:56.682Z,888.00
2019-02-15T07:19:56.667Z,916.00
2019-02-15T07:20:56.652Z,948.00
2019-02-15T07:21:56.636Z,988.00
2019-02-15T07:22:56.620Z,1028.00
2019-02-15T07:23:56.604Z,1068.00
2019-02-15T07:24:56.590Z,1116.00
2019-02-15T07:25:56.576Z,1152.00
2019-02-15T07:26:56.557Z,1180.00
2019-02-15T07:27:56.562Z,1204.00
2019-02-15T07:28:56.527Z,1240.00
2019-02-15T07:29:56.510Z,1292.00
2019-02-15T07:30:56.497Z,1348.00
2019-02-15T07:31:56.480Z,1400.00
2019-02-15T07:32:56.465Z,1436.00
2019-02-15T07:33:56.450Z,1464.00
2019-02-15T07:34:56.434Z,1508.00
2019-02-15T07:35:56.420Z,1556.00
2019-02-15T07:36:56.407Z,1616.00
2019-02-15T07:37:56.388Z,1692.00
2019-02-15T07:38:56.373Z,1780.00
2019-02-15T07:39:56.358Z,1876.00
2019-02-15T07:40:56.345Z,1972.00
2019-02-15T07:41:56.327Z,2064.00
2019-02-15T07:42:56.315Z,2152.00
2019-02-15T07:43:56.299Z,2244.00
2019-02-15T07:44:56.285Z,2336.00
2019-02-15T07:45:56.269Z,2424.00
2019-02-15T07:46:56.255Z,2508.00
2019-02-15T07:47:56.239Z,2596.00
2019-02-15T07:48:56.226Z,2676.00
2019-02-15T07:49:56.210Z,2812.00
2019-02-15T07:50:56.197Z,3012.00
2019-02-15T07:51:56.182Z,3352.00
2019-02-15T07:52:56.168Z,3660.00
2019-02-15T07:53:56.153Z,3912.00
2019-02-15T07:54:56.141Z,4124.00
2019-02-15T07:55:56.126Z,4196.00
2019-02-15T07:56:56.113Z,3988.00
2019-02-15T07:57:56.099Z,3724.00
2019-02-15T07:58:56.086Z,3836.00
2019-02-15T07:59:56.074Z,4312.00
2019-02-15T08:00:56.067Z,4852.00
2019-02-15T08:02:01.912Z,5332.00
2019-02-15T08:02:56.038Z,5708.00
2019-02-15T08:03:56.025Z,5868.00
2019-02-15T08:04:56.014Z,5900.00
2019-02-15T08:05:56.002Z,6116.00
2019-02-15T08:06:55.992Z,6452.00
2019-02-15T08:07:55.981Z,7140.00
2019-02-15T08:08:55.971Z,6772.00
2019-02-15T08:09:55.960Z,6040.00
2019-02-15T08:10:55.950Z,6188.00
2019-02-15T08:11:55.940Z,6228.00
2019-02-15T08:12:55.931Z,5952.00
2019-02-15T08:13:55.921Z,6300.00
2019-02-15T08:14:55.911Z,6752.00
2019-02-15T08:15:55.902Z,7008.00
2019-02-15T08:16:55.894Z,6692.00
2019-02-15T08:17:55.889Z,6116.00
2019-02-15T08:18:55.878Z,5620.00
2019-02-15T08:19:55.868Z,5500.00
2019-02-15T08:20:55.860Z,5456.00
2019-02-15T08:21:55.854Z,5404.00
2019-02-15T08:22:55.843Z,5620.00
2019-02-15T08:23:55.835Z,5760.00
2019-02-15T08:24:55.829Z,5500.00
2019-02-15T08:25:55.819Z,5264.00
2019-02-15T08:26:55.815Z,5292.00
2019-02-15T08:27:55.804Z,5468.00
2019-02-15T08:28:55.797Z,5644.00
2019-02-15T08:29:55.789Z,5756.00
2019-02-15T08:30:55.783Z,5884.00
2019-02-15T08:31:55.781Z,5996.00
2019-02-15T08:32:55.769Z,5864.00
2019-02-15T08:33:55.762Z,5588.00
2019-02-15T08:34:55.755Z,5292.00
2019-02-15T08:35:55.750Z,5168.00
2019-02-15T08:36:55.743Z,5152.00
2019-02-15T08:37:55.737Z,5224.00
2019-02-15T08:38:55.730Z,4940.00
2019-02-15T08:39:55.729Z,4532.00
2019-02-15T08:40:55.717Z,4508.00
2019-02-15T08:42:01.265Z,4836.00
2019-02-15T08:42:56.054Z,4896.00
2019-02-15T08:43:55.697Z,4440.00
2019-02-15T08:44:55.690Z,3936.00
2019-02-15T08:46:01.606Z,3704.00
2019-02-15T08:46:55.675Z,3624.00
2019-02-15T08:47:55.669Z,3928.00
2019-02-15T08:48:55.660Z,4172.00
2019-02-15T08:49:55.652Z,4240.00
2019-02-15T08:50:55.647Z,4344.00
2019-02-15T08:51:55.640Z,4352.00
2019-02-15T08:52:55.629Z,4252.00
2019-02-15T08:53:55.620Z,4148.00
2019-02-15T08:54:55.613Z,4104.00
2019-02-15T08:55:55.604Z,4104.00
2019-02-15T08:56:55.598Z,4372.00
2019-02-15T08:57:55.650Z,5140.00
2019-02-15T08:58:55.578Z,5956.00
2019-02-15T08:59:55.569Z,6320.00
2019-02-15T09:00:55.560Z,6284.00
2019-02-15T09:01:55.551Z,6608.00
2019-02-15T09:02:55.543Z,7084.00
2019-02-15T09:03:55.536Z,7332.00
2019-02-15T09:04:55.534Z,7392.00
2019-02-15T09:05:55.521Z,7432.00
2019-02-15T09:06:55.518Z,7472.00
2019-02-15T09:07:55.510Z,7532.00
2019-02-15T09:08:55.502Z,7560.00
2019-02-15T09:09:55.496Z,7612.00
2019-02-15T09:10:55.491Z,7636.00
2019-02-15T09:11:55.488Z,7660.00
2019-02-15T09:12:55.482Z,7696.00
2019-02-15T09:13:55.477Z,7760.00
2019-02-15T09:14:55.473Z,7792.00
2019-02-15T09:15:55.470Z,7832.00
2019-02-15T09:16:55.475Z,7868.00
2019-02-15T09:17:55.464Z,7868.00
2019-02-15T09:18:55.461Z,7868.00
2019-02-15T09:19:55.459Z,7900.00
2019-02-15T09:20:55.456Z,7856.00
2019-02-15T09:21:55.454Z,7720.00
2019-02-15T09:22:55.453Z,7588.00
2019-02-15T09:23:55.455Z,7460.00
2019-02-15T09:24:55.450Z,7416.00
2019-02-15T09:25:55.448Z,7588.00
2019-02-15T09:26:55.446Z,7740.00
2019-02-15T09:27:55.446Z,7952.00
2019-02-15T09:28:55.495Z,7748.00
2019-02-15T09:29:55.443Z,7652.00
2019-02-15T09:30:55.441Z,7932.00
2019-02-15T09:31:55.444Z,8236.00
2019-02-15T09:32:55.441Z,8352.00
2019-02-15T09:33:55.439Z,8388.00
2019-02-15T09:34:55.438Z,8440.00
2019-02-15T09:35:55.437Z,8460.00
2019-02-15T09:36:55.440Z,8484.00
2019-02-15T09:37:55.436Z,8512.00
2019-02-15T09:38:55.436Z,8536.00
2019-02-15T09:39:55.440Z,8540.00
2019-02-15T09:40:55.437Z,8576.00
2019-02-15T09:41:55.437Z,8596.00
2019-02-15T09:42:55.443Z,8636.00
2019-02-15T09:43:55.444Z,8644.00
2019-02-15T09:44:55.442Z,8656.00
2019-02-15T09:45:55.444Z,8664.00
2019-02-15T09:46:55.445Z,8704.00
2019-02-15T09:47:55.447Z,8728.00
2019-02-15T09:48:55.455Z,8720.00
2019-02-15T09:49:55.451Z,8740.00
2019-02-15T09:50:55.454Z,8808.00
2019-02-15T09:51:55.651Z,8816.00
2019-02-15T09:52:55.460Z,8832.00
2019-02-15T09:53:55.463Z,8844.00
2019-02-15T09:54:55.466Z,8892.00
2019-02-15T09:55:55.469Z,8916.00
2019-02-15T09:56:55.472Z,8916.00
2019-02-15T09:57:55.476Z,8948.00
2019-02-15T09:58:55.479Z,8988.00
2019-02-15T09:59:55.484Z,9040.00
2019-02-15T10:00:55.492Z,9080.00
2019-02-15T10:01:55.490Z,9076.00
2019-02-15T10:02:55.494Z,9036.00
2019-02-15T10:03:55.498Z,9076.00
2019-02-15T10:04:55.502Z,9064.00
2019-02-15T10:05:55.507Z,9092.00
2019-02-15T10:06:55.511Z,9092.00
2019-02-15T10:07:55.515Z,9100.00
2019-02-15T10:08:55.519Z,9128.00
2019-02-15T10:09:55.523Z,9052.00
2019-02-15T10:10:55.529Z,8828.00
2019-02-15T10:11:55.533Z,8800.00
2019-02-15T10:12:55.538Z,8824.00
2019-02-15T10:13:55.542Z,8820.00
2019-02-15T10:14:55.547Z,8852.00
2019-02-15T10:15:55.552Z,9076.00
2019-02-15T10:16:55.557Z,9236.00
2019-02-15T10:17:55.561Z,9264.00
2019-02-15T10:18:55.572Z,9272.00
2019-02-15T10:19:55.572Z,9264.00
2019-02-15T10:20:55.579Z,9280.00
2019-02-15T10:21:55.582Z,9252.00
2019-02-15T10:22:55.588Z,9268.00
2019-02-15T10:23:55.593Z,9272.00
2019-02-15T10:24:55.600Z,9320.00
2019-02-15T10:25:55.604Z,9312.00
2019-02-15T10:26:55.609Z,9272.00
2019-02-15T10:27:55.614Z,9236.00
2019-02-15T10:28:55.627Z,9204.00
2019-02-15T10:29:55.624Z,9144.00
2019-02-15T10:30:55.630Z,9128.00
2019-02-15T10:31:55.636Z,9064.00
2019-02-15T10:32:55.641Z,8956.00
2019-02-15T10:33:55.646Z,8800.00
2019-02-15T10:34:55.651Z,8660.00
2019-02-15T10:35:55.657Z,8548.00
2019-02-15T10:36:55.664Z,8492.00
2019-02-15T10:37:55.668Z,8492.00
2019-02-15T10:38:55.680Z,8548.00
2019-02-15T10:39:55.713Z,8648.00
2019-02-15T10:40:55.684Z,8736.00
2019-02-15T10:41:55.689Z,8844.00
2019-02-15T10:42:55.696Z,8900.00
2019-02-15T10:43:55.701Z,8840.00
2019-02-15T10:44:55.706Z,8756.00
2019-02-15T10:45:55.711Z,8732.00
2019-02-15T10:46:55.717Z,8708.00
2019-02-15T10:47:55.724Z,8696.00
2019-02-15T10:48:55.729Z,8656.00
2019-02-15T10:49:55.734Z,8636.00
2019-02-15T10:50:55.741Z,8620.00
2019-02-15T10:51:55.747Z,8628.00
2019-02-15T10:52:55.753Z,8680.00
2019-02-15T10:53:55.772Z,8668.00
2019-02-15T10:54:55.764Z,8460.00
2019-02-15T10:55:55.770Z,8236.00
2019-02-15T10:56:55.786Z,8096.00
2019-02-15T10:57:55.783Z,8000.00
2019-02-15T10:58:55.788Z,7888.00
2019-02-15T10:59:55.796Z,7784.00
2019-02-15T11:00:55.802Z,7688.00
2019-02-15T11:01:55.806Z,7600.00
2019-02-15T11:02:55.812Z,7532.00
2019-02-15T11:03:55.818Z,7448.00
2019-02-15T11:04:55.825Z,7372.00
2019-02-15T11:05:55.831Z,7316.00
2019-02-15T11:06:55.837Z,7284.00
2019-02-15T11:07:55.843Z,7412.00
2019-02-15T11:08:55.849Z,7496.00
2019-02-15T11:09:55.854Z,7348.00
2019-02-15T11:10:55.860Z,7212.00
2019-02-15T11:11:55.866Z,7188.00
2019-02-15T11:12:55.873Z,7168.00
2019-02-15T11:13:55.878Z,7160.00
2019-02-15T11:14:55.884Z,7156.00
2019-02-15T11:15:55.892Z,7168.00
2019-02-15T11:16:55.896Z,7244.00
2019-02-15T11:17:55.909Z,7460.00
2019-02-15T11:18:55.910Z,7656.00
2019-02-15T11:19:55.912Z,7724.00
2019-02-15T11:20:55.918Z,7760.00
2019-02-15T11:21:55.922Z,7764.00
2019-02-15T11:22:55.927Z,7756.00
2019-02-15T11:23:55.932Z,7752.00
2019-02-15T11:24:55.939Z,7764.00
2019-02-15T11:25:55.941Z,7788.00
2019-02-15T11:26:55.949Z,7856.00
2019-02-15T11:27:55.951Z,7908.00
2019-02-15T11:28:55.955Z,7924.00
2019-02-15T11:29:55.958Z,7856.00
2019-02-15T11:30:55.965Z,7820.00
2019-02-15T11:31:55.967Z,7884.00
2019-02-15T11:32:55.971Z,7928.00
2019-02-15T11:33:55.974Z,7928.00
2019-02-15T11:34:55.977Z,7892.00
2019-02-15T11:35:55.981Z,7828.00
2019-02-15T11:36:55.984Z,7792.00
2019-02-15T11:37:55.989Z,7784.00
2019-02-15T11:38:55.989Z,7856.00
2019-02-15T11:39:55.992Z,7924.00
2019-02-15T11:40:55.994Z,7936.00
2019-02-15T11:41:55.996Z,7960.00
2019-02-15T11:42:56.001Z,8000.00
2019-02-15T11:43:56.000Z,8052.00
2019-02-15T11:44:56.002Z,8048.00
2019-02-15T11:45:56.003Z,8088.00
2019-02-15T11:46:56.899Z,8088.00
2019-02-15T11:47:56.006Z,8080.00
2019-02-15T11:48:56.010Z,8040.00
2019-02-15T11:49:56.006Z,7992.00
2019-02-15T11:50:56.009Z,7952.00
2019-02-15T11:51:56.009Z,7880.00
2019-02-15T11:52:56.010Z,7812.00
2019-02-15T11:53:56.010Z,7744.00
2019-02-15T11:54:56.010Z,7688.00
2019-02-15T11:55:56.012Z,7660.00
2019-02-15T11:56:56.013Z,7616.00
2019-02-15T11:57:56.013Z,7612.00
2019-02-15T11:58:56.014Z,7628.00
2019-02-15T11:59:56.016Z,7668.00
2019-02-15T12:00:56.018Z,7712.00
2019-02-15T12:01:56.047Z,7764.00
2019-02-15T12:02:56.018Z,7808.00
2019-02-15T12:03:56.021Z,7840.00
2019-02-15T12:04:56.021Z,7876.00
2019-02-15T12:05:56.025Z,7932.00
2019-02-15T12:06:56.057Z,7952.00
2019-02-15T12:07:56.079Z,7960.00
2019-02-15T12:08:56.027Z,7956.00
2019-02-15T12:09:56.028Z,7936.00
2019-02-15T12:10:56.029Z,7924.00
2019-02-15T12:11:56.031Z,7900.00
2019-02-15T12:12:56.040Z,7876.00
2019-02-15T12:13:56.033Z,7820.00
2019-02-15T12:14:56.035Z,7808.00
2019-02-15T12:15:56.037Z,7764.00
2019-02-15T12:16:56.039Z,7740.00
2019-02-15T12:17:56.040Z,7680.00
2019-02-15T12:18:56.042Z,7632.00
2019-02-15T12:19:56.044Z,7580.00
2019-02-15T12:20:56.046Z,7524.00
2019-02-15T12:21:56.047Z,7492.00
2019-02-15T12:22:56.050Z,7440.00
2019-02-15T12:23:56.051Z,7416.00
2019-02-15T12:24:56.054Z,7400.00
2019-02-15T12:25:56.054Z,7396.00
2019-02-15T12:26:56.056Z,7392.00
2019-02-15T12:27:56.065Z,7368.00
2019-02-15T12:28:56.068Z,7368.00
2019-02-15T12:29:56.066Z,7356.00
2019-02-15T12:30:56.067Z,7336.00
2019-02-15T12:31:56.067Z,7328.00
2019-02-15T12:32:56.068Z,7336.00
2019-02-15T12:33:56.071Z,7344.00
2019-02-15T12:34:56.072Z,7336.00
2019-02-15T12:35:56.075Z,7364.00
2019-02-15T12:36:56.076Z,7348.00
2019-02-15T12:37:56.077Z,7364.00
2019-02-15T12:38:56.137Z,7384.00
2019-02-15T12:39:56.081Z,7388.00
2019-02-15T12:40:56.084Z,7416.00
2019-02-15T12:41:56.085Z,7424.00
2019-02-15T12:42:56.088Z,7408.00